Airfield :
LOGIN :

Register | Disclaimer

   EN    FR    IT 

 










Legend :    VFR   Marginal VFR   IFR   Intensive IFR   Very Intensive IFR
Visi :
Ceiling :
>= 8 km
>= 3000ft
5 to 8 km
1000 to 3000 ft
1500m to 5 km
500 to 1000 ft
800 to 1500m
200 to 500 ft
< 800m
< 200 ft
Symbols :   Thunderstorms  Fog  Heavy snow  Heavy precipitations  Wind > 20 kt
SIGMETs :     Misc.  Thunderstorms  Icing  Turbulence  Mountain Waves  Volcanic Ashes






- Airport Elevation : 90 ft
- IATA code : NTE


LFRS - Nantes

CURRENT METAR :
  • 280300Z AUTO 21005KT 1700 1100 R03/2400U R21/2100D BR FEW008 BKN230 09/08 Q1014 TEMPO 3500 SHRA BKN030CB

EXPIRED METARs :
  • 280230Z AUTO 21005KT 8000 FEW017 OVC240 09/09 Q1013 TEMPO 3500 SHRA BKN030CB
  • 280200Z AUTO VRB03KT 7000 1800 FEW020/// SCT058/// BKN120/// //////TCU 09/08 Q1013 TEMPO 3500 SHRA BKN030CB
  • 272200Z AUTO 30007KT 280V340 9999 BKN009 BKN120 OVC160 12/11 Q1013 BECMG SCT020
  • 280130Z AUTO 22003KT 7000 2200 FEW033/// BKN210/// OVC240/// //////TCU 09/09 Q1013 TEMPO 3500 SHRA BKN030CB

TAF AMD TAF LFRS
Valid from the 28 at 03:00 until the 29 at 06:00 UTC


280309Z 2803/2906 26005KT 9999 SCT030
TEMPO 2803/2815 3500 SHRA BKN030CB
PROB40
TEMPO 2803/2806 1200 BR BKN004
PROB40
TEMPO 2805/2811 VRB15G30KT 2500 TSRAGS SCT010 BKN020CB
BECMG 2901/2903 4000 BR
PROB30
TEMPO 2903/2906 0700 FG
ATIS : +33 2 40 05 12 74



MET'MAP, your aeronautical weather chart ! - Copyright ORBIFLY December 2007 - Disclaimer

ORBIFLY MET'MAP TEAM :

Programming & Development : Alexandra Zaïnal
Original concept : Baudouin d'Aumeries
Technical & hardware support : Manuel Goepfert
Assistance : Marc-Olivier Méhu




SOURCES & CREDITS :

   NOAA